Time;durP1;ratioP1;P1;durP2;ratioP2;P2;SDS_P1;SDS_P2;PMS_P1;PMS_P2;Temp;Humidity;BMP_temperature;BMP_pressure;BME280_temperature;BME280_humidity;BME280_pressure;Samples;Min_cycle;Max_cycle;Signal;HPM_P1;HPM_P2
2023/06/19 00:01:45;;;;;;;4.13;3.22;;;20.20;99.90;;;;;;5071159;28;20056;-59
2023/06/19 00:04:11;;;;;;;5.90;3.10;;;20.10;99.90;;;;;;5071506;28;20056;-59
2023/06/19 00:06:37;;;;;;;7.38;3.60;;;20.00;99.90;;;;;;5071441;28;20056;-58
2023/06/19 00:09:03;;;;;;;4.72;3.40;;;19.90;99.90;;;;;;5071343;28;20028;-59
2023/06/19 00:11:29;;;;;;;5.10;3.63;;;20.00;99.90;;;;;;5071259;28;20044;-59
2023/06/19 00:13:55;;;;;;;3.97;3.20;;;20.00;99.90;;;;;;5071499;28;20028;-59
2023/06/19 00:16:21;;;;;;;5.22;3.65;;;19.90;99.90;;;;;;5071038;28;20031;-60
2023/06/19 00:18:47;;;;;;;4.63;3.22;;;20.00;99.90;;;;;;5071188;28;20032;-59
2023/06/19 00:21:12;;;;;;;4.80;3.13;;;20.00;99.90;;;;;;5071442;28;20120;-59
2023/06/19 00:23:38;;;;;;;3.28;3.00;;;20.10;99.90;;;;;;5071038;28;20182;-59
2023/06/19 00:26:04;;;;;;;3.80;3.00;;;20.00;99.90;;;;;;5071302;28;20047;-60
2023/06/19 00:28:30;;;;;;;3.95;3.03;;;20.00;99.90;;;;;;5071149;28;20484;-60
2023/06/19 00:30:56;;;;;;;4.82;3.47;;;20.00;99.90;;;;;;5070731;28;20059;-60
2023/06/19 00:33:22;;;;;;;4.15;3.47;;;20.00;99.90;;;;;;5071153;28;20028;-59
2023/06/19 00:35:50;;;;;;;3.58;3.28;;;20.00;99.90;;;;;;5071053;28;20086;-59
2023/06/19 00:38:16;;;;;;;4.35;3.35;;;20.00;99.90;;;;;;5070995;28;20032;-59
2023/06/19 00:40:41;;;;;;;4.82;3.13;;;20.10;99.90;;;;;;5071021;28;20024;-59
2023/06/19 00:43:07;;;;;;;3.35;3.00;;;20.20;99.90;;;;;;5071173;28;20060;-59
2023/06/19 00:45:33;;;;;;;4.43;2.92;;;20.30;99.90;;;;;;5070347;28;20037;-59
2023/06/19 00:47:59;;;;;;;4.95;3.33;;;20.40;99.90;;;;;;5070943;28;20021;-59
2023/06/19 00:50:27;;;;;;;5.32;3.17;;;20.50;99.90;;;;;;5070979;28;20461;-60
2023/06/19 00:52:53;;;;;;;4.72;3.50;;;20.50;99.90;;;;;;5071369;28;20029;-59
2023/06/19 00:55:20;;;;;;;3.47;3.17;;;20.50;99.90;;;;;;5071010;28;20016;-59
2023/06/19 00:57:46;;;;;;;6.03;3.50;;;20.40;99.90;;;;;;5070758;28;20397;-59
2023/06/19 01:00:12;;;;;;;3.58;3.22;;;20.50;99.90;;;;;;5070617;28;20027;-59
2023/06/19 01:02:39;;;;;;;4.97;3.45;;;20.50;99.90;;;;;;5070944;28;20503;-59
2023/06/19 01:05:05;;;;;;;5.28;3.55;;;20.50;99.90;;;;;;5070580;28;20040;-60
2023/06/19 01:08:01;;;;;;;5.32;3.38;;;20.50;99.90;;;;;;5070956;28;20563;-60
2023/06/19 01:10:40;;;;;;;3.88;3.22;;;20.40;99.90;;;;;;5070806;28;20036;-60
2023/06/19 01:13:16;;;;;;;3.70;3.15;;;20.30;99.90;;;;;;5070720;28;20060;-59
2023/06/19 01:15:42;;;;;;;4.82;3.63;;;20.20;99.90;;;;;;5070467;28;20055;-59
2023/06/19 01:18:11;;;;;;;4.88;3.40;;;20.20;99.90;;;;;;5070783;28;20146;-59
2023/06/19 01:20:37;;;;;;;3.97;3.58;;;20.10;99.90;;;;;;5070931;28;20029;-59
2023/06/19 01:23:10;;;;;;;4.90;3.75;;;20.00;99.90;;;;;;5070788;28;20021;-60
2023/06/19 01:25:36;;;;;;;5.38;3.80;;;19.90;99.90;;;;;;5070550;28;20048;-60
2023/06/19 01:28:09;;;;;;;6.15;3.70;;;19.90;99.90;;;;;;5071022;28;20033;-59
2023/06/19 01:30:36;;;;;;;4.40;3.47;;;19.90;99.90;;;;;;5070309;28;20515;-59
2023/06/19 01:33:25;;;;;;;4.45;3.47;;;19.80;99.90;;;;;;5069256;28;20400;-60
2023/06/19 01:35:52;;;;;;;3.53;3.22;;;19.80;99.90;;;;;;5070491;28;20063;-59
2023/06/19 01:38:20;;;;;;;3.72;3.28;;;19.80;99.90;;;;;;5070466;28;20028;-60
2023/06/19 01:40:48;;;;;;;5.57;3.50;;;19.80;99.90;;;;;;5070620;28;20063;-59
2023/06/19 01:43:15;;;;;;;3.90;3.50;;;19.80;99.90;;;;;;5070418;28;20029;-60
2023/06/19 01:45:41;;;;;;;3.95;3.60;;;19.70;99.90;;;;;;5070434;28;20031;-58
2023/06/19 01:48:07;;;;;;;5.93;3.72;;;19.70;99.90;;;;;;5070469;28;20063;-59
2023/06/19 01:50:33;;;;;;;5.20;3.60;;;19.70;99.90;;;;;;5070357;28;20544;-59
2023/06/19 01:52:59;;;;;;;5.50;3.60;;;19.70;99.90;;;;;;5070453;28;20162;-60
2023/06/19 01:55:25;;;;;;;4.45;3.63;;;19.80;99.90;;;;;;5070474;28;20036;-59
2023/06/19 01:57:51;;;;;;;4.78;3.50;;;19.80;99.90;;;;;;5072659;28;20035;-59
2023/06/19 02:00:17;;;;;;;3.78;3.45;;;19.90;99.90;;;;;;5073676;28;20100;-59
2023/06/19 02:02:43;;;;;;;3.70;3.40;;;19.90;99.90;;;;;;5073928;28;20020;-59
2023/06/19 02:05:09;;;;;;;3.50;3.20;;;19.90;99.90;;;;;;5073785;28;20149;-59
2023/06/19 02:07:34;;;;;;;4.65;3.60;;;19.90;99.90;;;;;;5073596;28;20370;-59
2023/06/19 02:10:00;;;;;;;4.38;3.40;;;20.00;99.90;;;;;;5073806;28;20366;-59
2023/06/19 02:12:26;;;;;;;4.57;3.58;;;20.00;99.90;;;;;;5073125;28;20048;-60
2023/06/19 02:14:51;;;;;;;3.95;3.13;;;20.00;99.90;;;;;;5073647;28;20021;-59
2023/06/19 02:17:17;;;;;;;6.13;3.38;;;20.00;99.90;;;;;;5073833;28;20038;-60
2023/06/19 02:19:43;;;;;;;3.88;3.40;;;20.00;99.90;;;;;;5073340;28;20056;-59
2023/06/19 02:22:08;;;;;;;4.50;3.50;;;20.00;99.90;;;;;;5073232;28;20025;-59
2023/06/19 02:24:34;;;;;;;4.90;3.67;;;19.90;99.90;;;;;;5073231;28;20040;-59
2023/06/19 02:27:01;;;;;;;4.28;3.15;;;19.90;99.90;;;;;;5073306;28;20062;-59
2023/06/19 02:29:29;;;;;;;4.47;3.42;;;19.90;99.90;;;;;;5073445;28;20021;-59
2023/06/19 02:31:55;;;;;;;4.22;3.13;;;19.80;99.90;;;;;;5073271;28;20546;-59
2023/06/19 02:34:24;;;;;;;3.90;3.40;;;19.80;99.90;;;;;;5073520;28;20020;-60
2023/06/19 02:36:50;;;;;;;3.70;3.28;;;19.80;99.90;;;;;;5073153;28;20075;-60
2023/06/19 02:39:15;;;;;;;4.00;3.60;;;19.70;99.90;;;;;;5073123;28;20518;-59
2023/06/19 02:41:45;;;;;;;4.40;3.47;;;19.70;99.90;;;;;;5073216;28;20032;-60
2023/06/19 02:44:14;;;;;;;4.45;3.55;;;19.60;99.90;;;;;;5072823;28;20029;-59
2023/06/19 02:46:40;;;;;;;3.60;3.30;;;19.60;99.90;;;;;;5072992;28;20029;-59
2023/06/19 02:49:05;;;;;;;5.75;3.40;;;19.60;99.90;;;;;;5072924;28;20025;-59
2023/06/19 02:51:31;;;;;;;5.07;3.40;;;19.60;99.90;;;;;;5073183;28;20044;-60
2023/06/19 02:53:57;;;;;;;3.70;3.40;;;19.60;99.90;;;;;;5073216;28;20047;-59
2023/06/19 02:56:24;;;;;;;4.00;3.60;;;19.50;99.90;;;;;;5072328;28;20059;-59
2023/06/19 02:58:49;;;;;;;3.50;3.20;;;19.50;99.90;;;;;;5072899;28;20020;-60
2023/06/19 03:01:15;;;;;;;4.15;3.63;;;19.50;99.90;;;;;;5073264;28;20029;-59
2023/06/19 03:03:41;;;;;;;4.60;3.53;;;19.50;99.90;;;;;;5072732;28;20397;-59
2023/06/19 03:06:07;;;;;;;4.10;3.38;;;19.50;99.90;;;;;;5072559;28;20024;-59
2023/06/19 03:08:34;;;;;;;3.60;3.30;;;19.60;99.90;;;;;;5072234;28;20025;-59
2023/06/19 03:11:00;;;;;;;3.67;3.38;;;19.70;99.90;;;;;;5072238;28;20086;-60
2023/06/19 03:13:25;;;;;;;3.70;3.40;;;19.80;99.90;;;;;;5072548;28;20053;-59
2023/06/19 03:15:51;;;;;;;4.53;3.38;;;19.80;99.90;;;;;;5072427;28;20138;-59
2023/06/19 03:18:17;;;;;;;3.97;3.38;;;19.90;99.90;;;;;;5072307;28;20082;-60
2023/06/19 03:20:42;;;;;;;3.78;3.47;;;19.90;99.90;;;;;;5072646;28;20017;-60
2023/06/19 03:23:08;;;;;;;4.13;3.63;;;20.00;99.90;;;;;;5072291;28;20488;-59
2023/06/19 03:25:34;;;;;;;4.00;3.60;;;19.90;99.90;;;;;;5071689;28;20063;-59
2023/06/19 03:28:02;;;;;;;4.43;3.72;;;19.90;99.90;;;;;;5072415;28;20021;-59
2023/06/19 03:30:28;;;;;;;3.70;3.40;;;20.00;99.90;;;;;;5072051;28;20060;-59
2023/06/19 03:32:54;;;;;;;5.05;3.47;;;20.00;99.90;;;;;;5072048;28;20056;-59
2023/06/19 03:35:19;;;;;;;4.72;3.40;;;20.00;99.90;;;;;;5072358;28;20477;-60
2023/06/19 03:37:45;;;;;;;5.53;3.70;;;19.90;99.90;;;;;;5071893;28;20074;-60
2023/06/19 03:40:13;;;;;;;4.15;3.78;;;19.90;99.90;;;;;;5071605;28;20024;-60
2023/06/19 03:42:40;;;;;;;4.00;3.60;;;19.80;99.90;;;;;;5072046;28;20021;-59
2023/06/19 03:45:06;;;;;;;5.25;4.00;;;19.70;99.90;;;;;;5071797;28;20420;-60
2023/06/19 03:47:32;;;;;;;4.82;3.80;;;19.60;99.90;;;;;;5071540;28;20055;-59
2023/06/19 03:49:57;;;;;;;4.05;3.65;;;19.60;99.90;;;;;;5071777;28;20551;-59
2023/06/19 03:52:23;;;;;;;4.47;3.60;;;19.60;99.90;;;;;;5071554;28;20112;-59
2023/06/19 03:54:49;;;;;;;4.13;3.83;;;19.50;99.90;;;;;;5071412;28;20027;-60
2023/06/19 03:57:15;;;;;;;4.82;3.60;;;19.50;99.90;;;;;;5071917;28;20405;-60
2023/06/19 03:59:40;;;;;;;5.00;4.03;;;19.60;99.90;;;;;;5071451;28;20020;-60
2023/06/19 04:02:06;;;;;;;4.18;3.85;;;19.50;99.90;;;;;;5071439;28;20036;-60
2023/06/19 04:04:32;;;;;;;4.15;3.70;;;19.50;99.90;;;;;;5071342;28;20025;-60
2023/06/19 04:06:59;;;;;;;4.07;3.78;;;19.50;99.90;;;;;;5071678;28;20027;-59
2023/06/19 04:09:25;;;;;;;5.15;3.78;;;19.40;99.90;;;;;;5071167;28;20032;-60
2023/06/19 04:11:50;;;;;;;4.03;3.63;;;19.40;99.90;;;;;;5071325;28;20028;-59
2023/06/19 04:14:16;;;;;;;4.35;3.88;;;19.40;99.90;;;;;;5071408;28;20028;-60
2023/06/19 04:16:42;;;;;;;5.50;3.90;;;19.30;99.90;;;;;;5071272;28;20024;-59
2023/06/19 04:19:07;;;;;;;4.68;3.72;;;19.30;99.90;;;;;;5070605;28;20027;-59
2023/06/19 04:21:33;;;;;;;4.43;4.03;;;19.30;99.90;;;;;;5071692;28;20092;-59
2023/06/19 04:23:59;;;;;;;4.30;3.90;;;19.40;99.90;;;;;;5070762;28;20041;-59
2023/06/19 04:26:24;;;;;;;4.07;3.78;;;19.40;99.90;;;;;;5071101;28;20393;-59
2023/06/19 04:28:50;;;;;;;4.53;3.80;;;19.50;99.90;;;;;;5071698;28;20418;-60
2023/06/19 04:31:18;;;;;;;5.07;4.00;;;19.50;99.90;;;;;;5071047;28;20043;-60
2023/06/19 04:33:45;;;;;;;4.47;3.80;;;19.60;99.90;;;;;;5071055;28;20101;-60
2023/06/19 04:36:11;;;;;;;4.95;4.40;;;19.60;99.90;;;;;;5071139;28;20078;-59
2023/06/19 04:38:36;;;;;;;4.40;4.00;;;19.60;99.90;;;;;;5070776;28;20072;-59
2023/06/19 04:41:02;;;;;;;4.20;3.80;;;19.60;99.90;;;;;;5071064;28;20054;-59
2023/06/19 04:43:28;;;;;;;4.25;3.85;;;19.60;99.90;;;;;;5069697;28;20028;-59
2023/06/19 04:45:53;;;;;;;3.97;3.60;;;19.70;99.90;;;;;;5071337;28;20063;-59
2023/06/19 04:48:19;;;;;;;4.25;3.80;;;19.70;99.90;;;;;;5070952;28;20029;-59
2023/06/19 04:50:45;;;;;;;4.13;3.78;;;19.70;99.90;;;;;;5070969;28;20029;-59
2023/06/19 04:53:11;;;;;;;4.60;3.95;;;19.60;99.90;;;;;;5070632;28;20031;-59
2023/06/19 04:55:37;;;;;;;4.50;3.88;;;19.60;99.90;;;;;;5071247;28;20032;-59
2023/06/19 04:58:03;;;;;;;4.75;4.22;;;19.50;99.90;;;;;;5070751;28;20029;-59
2023/06/19 05:00:29;;;;;;;5.40;3.65;;;19.50;99.90;;;;;;5070840;28;20056;-59
2023/06/19 05:02:59;;;;;;;4.82;4.40;;;19.40;99.90;;;;;;5070784;28;20025;-59
2023/06/19 05:05:25;;;;;;;6.72;4.10;;;19.40;99.90;;;;;;5070975;28;20389;-60
2023/06/19 05:07:51;;;;;;;4.63;3.78;;;19.40;99.90;;;;;;5070352;28;20032;-59
2023/06/19 05:10:16;;;;;;;4.70;3.90;;;19.30;99.90;;;;;;5070846;28;20028;-59
2023/06/19 05:12:42;;;;;;;4.25;3.80;;;19.30;99.90;;;;;;5070852;28;20420;-61
2023/06/19 05:15:08;;;;;;;4.40;3.80;;;19.30;99.90;;;;;;5070648;28;20050;-60
2023/06/19 05:17:34;;;;;;;4.28;3.88;;;19.30;99.90;;;;;;5071113;28;20070;-59
2023/06/19 05:20:00;;;;;;;4.88;4.22;;;19.30;99.90;;;;;;5070727;28;20024;-59
2023/06/19 05:22:26;;;;;;;4.53;4.13;;;19.30;99.90;;;;;;5070336;28;20043;-59
2023/06/19 05:24:52;;;;;;;4.65;4.00;;;19.40;99.90;;;;;;5070500;28;20053;-59
2023/06/19 05:27:17;;;;;;;4.53;4.13;;;19.30;99.90;;;;;;5071108;28;20485;-59
2023/06/19 05:29:43;;;;;;;6.03;4.07;;;19.40;99.90;;;;;;5070614;28;20393;-59
2023/06/19 05:32:09;;;;;;;5.50;4.93;;;19.40;99.90;;;;;;5073957;28;20119;-59
2023/06/19 05:34:34;;;;;;;5.28;4.55;;;19.40;99.90;;;;;;5074239;28;20052;-61
2023/06/19 05:37:03;;;;;;;5.97;5.20;;;19.50;99.90;;;;;;5073839;28;20043;-59
2023/06/19 05:39:29;;;;;;;7.53;5.50;;;19.70;99.90;;;;;;5074241;28;20029;-60
2023/06/19 05:41:55;;;;;;;6.38;5.70;;;19.80;99.90;;;;;;5074157;28;20040;-60
2023/06/19 05:44:20;;;;;;;6.25;5.65;;;20.00;99.90;;;;;;5074463;28;20051;-60
2023/06/19 05:46:46;;;;;;;5.95;5.35;;;20.10;99.90;;;;;;5074103;28;20402;-60
2023/06/19 05:49:12;;;;;;;8.20;5.20;;;20.20;99.90;;;;;;5074085;28;20046;-60
2023/06/19 05:51:37;;;;;;;5.68;5.03;;;20.30;99.90;;;;;;5073597;28;20044;-60
2023/06/19 05:54:03;;;;;;;6.03;4.65;;;20.30;99.90;;;;;;5074188;28;20090;-60
2023/06/19 05:56:33;;;;;;;5.28;4.57;;;20.40;99.90;;;;;;5073838;28;20028;-60
2023/06/19 05:58:59;;;;;;;4.45;4.05;;;20.30;99.90;;;;;;5074229;28;20459;-60
2023/06/19 06:01:27;;;;;;;4.55;3.85;;;20.40;99.90;;;;;;5073984;28;20052;-59
2023/06/19 06:03:54;;;;;;;4.88;3.70;;;20.50;99.90;;;;;;5073526;28;20024;-63
2023/06/19 06:06:20;;;;;;;5.38;4.00;;;20.60;99.90;;;;;;5073961;28;20457;-60
2023/06/19 06:08:45;;;;;;;4.40;3.92;;;20.60;99.90;;;;;;5073758;28;20417;-61
2023/06/19 06:11:11;;;;;;;4.85;4.15;;;20.50;99.90;;;;;;5073971;28;20111;-60
2023/06/19 06:13:37;;;;;;;5.18;4.07;;;20.30;99.90;;;;;;5073548;28;20070;-60
2023/06/19 06:16:02;;;;;;;4.65;4.10;;;20.30;99.90;;;;;;5073590;28;20032;-60
2023/06/19 06:18:28;;;;;;;4.57;4.18;;;20.20;99.90;;;;;;5073176;28;20551;-60
2023/06/19 06:20:54;;;;;;;5.55;4.28;;;20.20;99.90;;;;;;5073376;28;20509;-60
2023/06/19 06:23:19;;;;;;;6.55;4.25;;;20.20;99.90;;;;;;5073359;28;20021;-60
2023/06/19 06:25:45;;;;;;;5.00;4.38;;;20.10;99.90;;;;;;5072662;28;20564;-60
2023/06/19 06:28:12;;;;;;;5.70;4.82;;;20.20;99.90;;;;;;5072974;28;20132;-60
2023/06/19 06:30:38;;;;;;;5.13;4.55;;;20.10;99.90;;;;;;5073469;28;20032;-60
2023/06/19 06:33:04;;;;;;;6.20;5.30;;;20.20;99.90;;;;;;5072583;28;20508;-59
2023/06/19 06:35:30;;;;;;;5.40;5.00;;;20.20;99.90;;;;;;5073200;28;20029;-60
2023/06/19 06:37:55;;;;;;;5.93;5.43;;;20.20;99.90;;;;;;5072613;28;20081;-60
2023/06/19 06:40:21;;;;;;;5.75;5.18;;;20.20;99.90;;;;;;5072139;28;20032;-60
2023/06/19 06:42:47;;;;;;;5.90;5.40;;;20.20;99.90;;;;;;5071687;28;20017;-59
2023/06/19 06:45:13;;;;;;;6.53;5.93;;;20.20;99.90;;;;;;5072695;28;20108;-60
2023/06/19 06:47:39;;;;;;;8.35;6.47;;;20.20;99.90;;;;;;5072537;28;20012;-58
2023/06/19 06:50:06;;;;;;;8.00;6.53;;;20.30;99.90;;;;;;5073019;28;20032;-59
2023/06/19 06:52:32;;;;;;;8.20;6.53;;;20.50;99.90;;;;;;5072810;28;20519;-58
2023/06/19 06:54:58;;;;;;;8.30;6.30;;;20.80;99.90;;;;;;5072802;28;20024;-59
2023/06/19 06:57:24;;;;;;;7.40;6.80;;;20.90;99.90;;;;;;5072741;28;20048;-59
2023/06/19 06:59:50;;;;;;;7.30;6.60;;;21.10;99.90;;;;;;5071891;28;20081;-58
2023/06/19 07:02:16;;;;;;;7.78;6.97;;;21.10;99.90;;;;;;5072463;28;20028;-58
2023/06/19 07:04:41;;;;;;;8.25;7.07;;;21.20;99.90;;;;;;5072821;28;20470;-59
2023/06/19 07:07:08;;;;;;;8.52;6.75;;;21.30;99.90;;;;;;5072614;28;20485;-59
2023/06/19 07:09:34;;;;;;;7.65;6.38;;;21.30;99.90;;;;;;5072959;28;20074;-59
2023/06/19 07:12:04;;;;;;;7.15;6.47;;;21.30;99.90;;;;;;5072380;28;20037;-59
2023/06/19 07:14:29;;;;;;;7.15;6.55;;;21.30;99.90;;;;;;5072436;28;20039;-59
2023/06/19 07:16:55;;;;;;;7.82;7.13;;;21.30;99.90;;;;;;5072034;28;20033;-59
2023/06/19 07:19:21;;;;;;;6.95;6.45;;;21.40;99.90;;;;;;5072459;28;20029;-59
2023/06/19 07:21:47;;;;;;;7.85;7.10;;;21.50;99.90;;;;;;5072606;28;20063;-59
2023/06/19 07:24:12;;;;;;;7.85;7.18;;;21.50;99.90;;;;;;5072210;28;20094;-59
2023/06/19 07:26:38;;;;;;;8.90;7.85;;;21.30;99.90;;;;;;5072137;28;20366;-59
2023/06/19 07:29:04;;;;;;;8.13;7.35;;;21.30;99.90;;;;;;5072090;28;20036;-59
2023/06/19 07:31:29;;;;;;;9.02;7.45;;;21.10;99.90;;;;;;5072106;28;20032;-60
2023/06/19 07:33:55;;;;;;;8.77;7.78;;;21.10;99.90;;;;;;5072044;28;20119;-59
2023/06/19 07:36:21;;;;;;;9.93;7.90;;;21.00;99.90;;;;;;5071978;28;20056;-59
2023/06/19 07:38:46;;;;;;;8.43;7.43;;;20.90;99.90;;;;;;5072059;28;20025;-59
2023/06/19 07:41:12;;;;;;;8.48;7.20;;;21.00;99.90;;;;;;5071863;28;20100;-59
2023/06/19 07:43:38;;;;;;;8.85;7.95;;;21.00;99.90;;;;;;5071880;28;20028;-59
2023/06/19 07:46:04;;;;;;;9.27;7.70;;;21.00;99.90;;;;;;5071550;28;20035;-59
2023/06/19 07:48:30;;;;;;;9.48;8.50;;;21.10;99.90;;;;;;5072195;28;20028;-59
2023/06/19 07:50:56;;;;;;;9.57;8.68;;;21.10;99.90;;;;;;5071692;28;20512;-59
2023/06/19 07:53:22;;;;;;;8.27;7.47;;;21.20;99.90;;;;;;5071537;28;20036;-59
2023/06/19 07:55:47;;;;;;;9.02;8.15;;;21.20;99.90;;;;;;5070906;28;20032;-59
2023/06/19 07:58:13;;;;;;;8.65;7.90;;;21.30;99.90;;;;;;5071582;28;20028;-59
2023/06/19 08:00:39;;;;;;;8.85;7.85;;;21.30;99.90;;;;;;5071708;28;20025;-59
2023/06/19 08:03:05;;;;;;;9.18;8.30;;;21.40;99.90;;;;;;5071524;28;20032;-59
2023/06/19 08:05:30;;;;;;;9.45;8.55;;;21.50;99.90;;;;;;5071530;28;20107;-59
2023/06/19 08:07:58;;;;;;;9.25;8.38;;;21.60;99.90;;;;;;5071572;28;20108;-59
2023/06/19 08:10:24;;;;;;;9.95;8.43;;;21.90;99.90;;;;;;5070069;28;20395;-59
2023/06/19 08:12:49;;;;;;;8.43;7.63;;;22.20;99.90;;;;;;5071615;28;20111;-60
2023/06/19 08:15:15;;;;;;;8.63;7.80;;;22.50;99.90;;;;;;5071331;28;20035;-59
2023/06/19 08:17:41;;;;;;;8.63;7.78;;;22.50;99.90;;;;;;5070163;28;20028;-59
2023/06/19 08:20:08;;;;;;;8.23;7.43;;;22.60;99.90;;;;;;5071477;28;20023;-59
2023/06/19 08:22:34;;;;;;;8.25;7.63;;;22.70;99.90;;;;;;5071294;28;20876;-58
2023/06/19 08:25:00;;;;;;;8.32;7.57;;;22.90;99.90;;;;;;5071254;28;20044;-59
2023/06/19 08:27:26;;;;;;;8.52;7.72;;;23.00;99.90;;;;;;5071410;28;20044;-59
2023/06/19 08:29:51;;;;;;;8.30;7.70;;;23.00;99.90;;;;;;5070791;28;20028;-58
2023/06/19 08:32:17;;;;;;;7.63;7.03;;;23.10;99.90;;;;;;5071181;28;20036;-59
2023/06/19 08:34:42;;;;;;;7.63;6.97;;;23.20;99.90;;;;;;5071078;28;20020;-59
2023/06/19 08:37:09;;;;;;;7.85;7.25;;;23.20;99.90;;;;;;5070980;28;20175;-59
2023/06/19 08:39:43;;;;;;;8.02;7.22;;;23.30;99.90;;;;;;5071373;28;20024;-59
2023/06/19 08:42:09;;;;;;;8.13;7.40;;;23.30;99.90;;;;;;5070916;28;20032;-59
2023/06/19 08:44:36;;;;;;;8.23;7.38;;;23.20;99.90;;;;;;5070766;28;20122;-59
2023/06/19 08:47:03;;;;;;;8.27;7.47;;;23.10;99.90;;;;;;5070952;28;20446;-59
2023/06/19 08:49:35;;;;;;;8.20;7.60;;;23.00;99.90;;;;;;5071068;28;20013;-59
2023/06/19 08:52:02;;;;;;;8.20;7.50;;;22.90;99.90;;;;;;5071418;28;20037;-60
2023/06/19 08:54:28;;;;;;;8.73;7.80;;;22.90;99.90;;;;;;5071069;28;20021;-59
2023/06/19 08:56:54;;;;;;;8.20;7.43;;;23.00;99.90;;;;;;5070915;28;20037;-59
2023/06/19 08:59:20;;;;;;;7.65;6.95;;;23.00;99.90;;;;;;5070653;28;20095;-59
2023/06/19 09:01:51;;;;;;;7.82;7.13;;;23.20;99.90;;;;;;5071054;28;20067;-59
2023/06/19 09:04:22;;;;;;;7.80;7.20;;;23.30;99.90;;;;;;5071261;28;20032;-59
2023/06/19 09:06:57;;;;;;;8.25;7.50;;;23.30;99.90;;;;;;5073529;28;20044;-59
2023/06/19 09:09:24;;;;;;;7.65;6.95;;;23.30;99.90;;;;;;5075161;28;20480;-59
2023/06/19 09:12:06;;;;;;;7.50;6.78;;;23.40;99.90;;;;;;5074838;28;20507;-59
2023/06/19 09:14:36;;;;;;;7.30;6.45;;;23.40;99.90;;;;;;5074890;28;20027;-59
2023/06/19 09:17:06;;;;;;;7.43;6.72;;;23.50;99.90;;;;;;5074825;28;20028;-59
2023/06/19 09:19:36;;;;;;;6.90;6.40;;;23.60;99.90;;;;;;5074432;28;20028;-59
2023/06/19 09:22:04;;;;;;;7.13;6.55;;;23.60;99.90;;;;;;5074425;28;20029;-59
2023/06/19 09:24:36;;;;;;;6.53;6.03;;;23.60;99.90;;;;;;5074369;28;20060;-59
2023/06/19 09:27:17;;;;;;;6.03;5.63;;;23.90;99.90;;;;;;5074091;28;20116;-59
2023/06/19 09:29:48;;;;;;;6.03;5.60;;;24.10;99.90;;;;;;5074832;28;20145;-58
2023/06/19 09:32:21;;;;;;;6.50;5.78;;;24.40;99.90;;;;;;5074349;28;20040;-59
2023/06/19 09:34:50;;;;;;;7.82;5.50;;;24.60;99.90;;;;;;5074320;28;20097;-59
2023/06/19 09:37:36;;;;;;;5.55;5.05;;;24.90;99.90;;;;;;5074284;28;20108;-59
2023/06/19 09:40:12;;;;;;;5.15;4.75;;;25.00;99.90;;;;;;5073987;28;20044;-59
2023/06/19 09:42:42;;;;;;;5.20;4.75;;;25.00;99.90;;;;;;5073783;28;20086;-59
2023/06/19 09:45:14;;;;;;;5.43;4.93;;;24.90;99.90;;;;;;5074493;28;20100;-59
2023/06/19 09:47:44;;;;;;;5.18;4.78;;;24.90;99.90;;;;;;5074192;28;20039;-59
2023/06/19 09:50:15;;;;;;;5.50;5.00;;;25.20;99.90;;;;;;5074240;28;20056;-59
2023/06/19 09:52:42;;;;;;;5.53;5.13;;;25.30;99.90;;;;;;5074084;28;20217;-59
2023/06/19 09:55:09;;;;;;;5.50;5.10;;;25.30;99.90;;;;;;5074385;28;20385;-59
2023/06/19 09:57:36;;;;;;;5.72;5.18;;;25.30;99.90;;;;;;5073544;28;20517;-59
2023/06/19 10:00:12;;;;;;;5.95;5.50;;;25.40;99.90;;;;;;5073983;28;20162;-59
2023/06/19 10:02:41;;;;;;;5.85;5.35;;;25.40;99.90;;;;;;5073865;28;20024;-59
2023/06/19 10:05:14;;;;;;;7.18;5.63;;;25.10;99.90;;;;;;5073984;28;20028;-60
2023/06/19 10:07:44;;;;;;;5.73;5.27;;;25.10;99.90;;;;;;5074062;28;20020;-59
2023/06/19 10:10:22;;;;;;;5.82;5.32;;;25.10;99.90;;;;;;5073790;28;20274;-59
2023/06/19 10:12:49;;;;;;;5.63;5.15;;;25.20;99.90;;;;;;5073516;28;20043;-59
2023/06/19 10:15:19;;;;;;;5.45;5.05;;;25.20;99.90;;;;;;5073830;28;20062;-59
2023/06/19 10:17:50;;;;;;;5.68;5.18;;;25.30;99.90;;;;;;5072994;28;20110;-59
2023/06/19 10:20:24;;;;;;;4.95;4.65;;;25.40;99.90;;;;;;5073496;28;20583;-59
2023/06/19 10:23:02;;;;;;;4.75;4.35;;;25.40;99.90;;;;;;5073513;28;20048;-59
2023/06/19 10:25:30;;;;;;;5.30;4.90;;;25.30;99.90;;;;;;5073335;28;20045;-58
2023/06/19 10:27:56;;;;;;;5.30;4.85;;;25.40;99.90;;;;;;5073368;28;20029;-60
2023/06/19 10:30:22;;;;;;;5.22;4.72;;;25.40;99.90;;;;;;5073013;28;20494;-58
2023/06/19 10:32:48;;;;;;;4.75;3.90;;;25.40;99.90;;;;;;5072244;28;20028;-59
2023/06/19 10:35:16;;;;;;;4.30;4.00;;;25.40;99.90;;;;;;5073168;28;20534;-59
2023/06/19 10:37:43;;;;;;;6.10;4.80;;;25.40;99.90;;;;;;5073510;28;20059;-58
2023/06/19 10:40:10;;;;;;;5.32;4.50;;;25.50;99.90;;;;;;5073056;28;20021;-58
2023/06/19 10:42:40;;;;;;;9.82;7.00;;;25.60;99.90;;;;;;5073094;28;20044;-58
2023/06/19 10:45:12;;;;;;;11.60;9.18;;;25.90;99.90;;;;;;5073104;28;20032;-58
2023/06/19 10:47:40;;;;;;;7.65;6.85;;;26.10;99.90;;;;;;5073053;28;20033;-58
2023/06/19 10:50:15;;;;;;;8.13;7.30;;;26.20;99.90;;;;;;5072975;28;20392;-58
2023/06/19 10:52:45;;;;;;;7.70;6.03;;;26.40;99.90;;;;;;5073085;28;20040;-58
2023/06/19 10:55:12;;;;;;;7.57;6.72;;;26.40;99.90;;;;;;5072865;28;20384;-59
2023/06/19 10:57:45;;;;;;;6.88;5.57;;;26.40;99.90;;;;;;5072797;28;20513;-59
2023/06/19 11:00:12;;;;;;;;;;;26.60;99.90;;;;;;5071853;28;20481;-58
2023/06/19 11:02:43;;;;;;;5.95;4.80;;;26.70;99.90;;;;;;5072742;28;19909;-58
2023/06/19 11:05:12;;;;;;;5.47;4.97;;;26.80;99.90;;;;;;5072309;28;20036;-57
2023/06/19 11:07:38;;;;;;;4.90;4.50;;;26.80;99.90;;;;;;5071637;28;20086;-58
2023/06/19 11:10:04;;;;;;;5.13;4.22;;;26.90;99.90;;;;;;5071160;28;20020;-58
2023/06/19 11:12:32;;;;;;;4.38;3.80;;;27.00;99.90;;;;;;5072064;28;20044;-58
2023/06/19 11:14:58;;;;;;;3.90;3.60;;;27.30;99.90;;;;;;5072885;28;20099;-59
2023/06/19 11:17:24;;;;;;;4.13;3.83;;;27.30;99.90;;;;;;5072316;28;20115;-58
2023/06/19 11:19:50;;;;;;;3.90;3.60;;;27.40;99.90;;;;;;5072490;28;20067;-59
2023/06/19 11:22:16;;;;;;;4.30;3.80;;;27.30;99.90;;;;;;5072602;28;20400;-59
2023/06/19 11:24:48;;;;;;;4.00;3.60;;;27.20;99.90;;;;;;5071431;28;20052;-59
2023/06/19 11:27:24;;;;;;;3.88;3.47;;;27.10;99.90;;;;;;5072201;28;20400;-59
2023/06/19 11:29:55;;;;;;;3.85;3.45;;;27.20;99.90;;;;;;5072079;28;20032;-57
2023/06/19 11:32:24;;;;;;;3.92;3.60;;;27.10;99.90;;;;;;5072122;28;20052;-57
2023/06/19 11:34:53;;;;;;;4.78;3.25;;;27.10;99.90;;;;;;5072085;28;20028;-59
2023/06/19 11:37:21;;;;;;;6.00;3.40;;;27.10;99.90;;;;;;5072424;28;20052;-59
2023/06/19 11:39:47;;;;;;;4.10;3.53;;;27.00;99.90;;;;;;5071753;28;20031;-57
2023/06/19 11:42:16;;;;;;;3.40;3.10;;;27.00;99.90;;;;;;5072046;28;20109;-59
2023/06/19 11:45:05;;;;;;;4.32;3.35;;;27.00;99.90;;;;;;5072085;28;20382;-59
2023/06/19 11:47:31;;;;;;;3.17;2.88;;;27.10;99.90;;;;;;5071771;28;20505;-59
2023/06/19 11:49:58;;;;;;;3.75;3.45;;;27.20;99.90;;;;;;5072230;28;20099;-59
2023/06/19 11:52:23;;;;;;;3.35;3.05;;;27.40;99.90;;;;;;5071496;28;20039;-59
2023/06/19 11:54:49;;;;;;;3.50;3.20;;;27.30;99.90;;;;;;5071935;28;20103;-59
2023/06/19 11:57:15;;;;;;;3.10;2.90;;;27.20;99.90;;;;;;5071736;28;20035;-58
2023/06/19 11:59:41;;;;;;;3.00;2.70;;;27.20;99.90;;;;;;5072063;28;20024;-57
2023/06/19 12:02:08;;;;;;;3.17;2.72;;;27.40;99.90;;;;;;5071543;28;20484;-58
2023/06/19 12:04:34;;;;;;;3.17;2.85;;;27.60;99.90;;;;;;5071265;28;20028;-59
2023/06/19 12:07:00;;;;;;;3.38;2.45;;;27.80;99.90;;;;;;5070878;28;20024;-58
2023/06/19 12:09:27;;;;;;;7.18;2.90;;;28.00;99.90;;;;;;5071559;28;20072;-59
2023/06/19 12:11:53;;;;;;;3.20;2.90;;;28.30;99.90;;;;;;5071534;28;20033;-58
2023/06/19 12:14:19;;;;;;;2.90;2.70;;;28.40;99.90;;;;;;5071533;28;20447;-59
2023/06/19 12:16:48;;;;;;;3.13;2.92;;;28.40;99.90;;;;;;5071170;28;20020;-59
2023/06/19 12:19:13;;;;;;;3.20;2.85;;;28.30;99.90;;;;;;5071256;28;20021;-59
2023/06/19 12:21:39;;;;;;;3.30;2.85;;;28.30;99.90;;;;;;5070974;28;20028;-59
2023/06/19 12:24:06;;;;;;;3.38;3.13;;;28.30;99.90;;;;;;5071477;28;20138;-58
2023/06/19 12:26:36;;;;;;;3.28;2.88;;;28.50;99.90;;;;;;5071238;28;20036;-59
2023/06/19 12:29:05;;;;;;;3.50;3.20;;;28.70;99.90;;;;;;5071205;28;20440;-59
2023/06/19 12:31:32;;;;;;;3.83;3.20;;;29.00;99.90;;;;;;5071107;28;20032;-59
2023/06/19 12:33:58;;;;;;;3.75;3.40;;;28.90;99.90;;;;;;5070941;28;20103;-59
2023/06/19 12:36:24;;;;;;;3.00;2.80;;;28.90;99.90;;;;;;5071135;28;20150;-59
2023/06/19 12:38:53;;;;;;;3.17;2.97;;;29.00;99.90;;;;;;5071398;28;20020;-58
2023/06/19 12:41:22;;;;;;;3.15;2.88;;;29.00;99.90;;;;;;5070559;28;20039;-59
2023/06/19 12:43:48;;;;;;;3.47;3.15;;;29.00;99.90;;;;;;5069717;28;20107;-58
2023/06/19 12:46:14;;;;;;;4.43;2.90;;;28.90;99.90;;;;;;5070923;28;20595;-59
2023/06/19 12:48:41;;;;;;;3.45;3.10;;;28.90;99.90;;;;;;5071126;28;20082;-59